createdAt,value
2022-11-16T00:04:42.326Z,4.85
2022-11-16T00:09:48.710Z,4.88
2022-11-16T00:14:56.232Z,4.92
2022-11-16T00:20:02.336Z,4.89
2022-11-16T00:25:10.435Z,4.94
2022-11-16T00:30:18.905Z,4.91
2022-11-16T00:35:25.111Z,4.91
2022-11-16T00:40:31.717Z,4.90
2022-11-16T00:45:40.067Z,4.87
2022-11-16T00:50:47.924Z,4.89
2022-11-16T00:55:54.805Z,4.88
2022-11-16T01:01:08.601Z,4.89
2022-11-16T01:06:17.129Z,4.91
2022-11-16T01:11:40.313Z,4.91
2022-11-16T01:16:50.656Z,4.87
2022-11-16T01:21:57.283Z,4.90
2022-11-16T01:27:03.616Z,4.91
2022-11-16T01:32:14.806Z,4.89
2022-11-16T01:37:22.225Z,4.95
2022-11-16T01:42:33.871Z,4.93
2022-11-16T01:47:43.559Z,4.96
2022-11-16T01:53:01.306Z,4.89
2022-11-16T01:58:19.474Z,4.91
2022-11-16T02:03:30.797Z,4.91
2022-11-16T02:09:12.234Z,4.93
2022-11-16T02:14:46.378Z,4.94
2022-11-16T02:20:30.888Z,4.93
2022-11-16T02:25:49.581Z,4.87
2022-11-16T02:30:59.810Z,4.84
2022-11-16T02:36:10.674Z,4.84
2022-11-16T02:41:23.216Z,4.83
2022-11-16T02:46:37.720Z,4.83
2022-11-16T02:51:48.842Z,4.85
2022-11-16T02:56:57.556Z,4.80
2022-11-16T03:02:19.712Z,4.80
2022-11-16T03:07:33.967Z,4.81
2022-11-16T03:12:42.663Z,4.77
2022-11-16T03:17:52.218Z,4.85
2022-11-16T03:23:03.896Z,4.84
2022-11-16T03:28:15.321Z,4.90
2022-11-16T03:33:29.320Z,4.91
2022-11-16T03:38:40.030Z,4.90
2022-11-16T03:43:50.055Z,4.92
2022-11-16T03:49:03.563Z,4.96
2022-11-16T03:54:15.437Z,4.95
2022-11-16T03:59:22.858Z,4.94
2022-11-16T04:04:47.460Z,4.94
2022-11-16T04:10:11.480Z,4.94
2022-11-16T04:15:37.017Z,4.95
2022-11-16T04:21:04.447Z,4.92
2022-11-16T04:26:13.582Z,4.88
2022-11-16T04:31:38.002Z,4.86
2022-11-16T04:37:07.433Z,4.94
2022-11-16T04:42:19.402Z,4.96
2022-11-16T04:47:28.642Z,4.97
2022-11-16T04:52:36.199Z,4.98
2022-11-16T04:57:45.123Z,5.00
2022-11-16T05:03:00.821Z,4.98
2022-11-16T05:08:09.860Z,4.98
2022-11-16T05:13:17.423Z,4.95
2022-11-16T05:18:24.261Z,4.93
2022-11-16T05:23:49.596Z,4.98
2022-11-16T05:29:00.804Z,4.97
2022-11-16T05:34:07.835Z,5.01
2022-11-16T05:39:15.925Z,5.02
2022-11-16T05:44:22.638Z,5.03
2022-11-16T05:49:29.665Z,5.06
2022-11-16T05:54:40.011Z,5.07
2022-11-16T05:59:46.494Z,5.05
2022-11-16T06:04:53.466Z,5.09
2022-11-16T06:10:02.178Z,5.09
2022-11-16T06:15:11.411Z,4.99
2022-11-16T06:20:18.337Z,5.04
2022-11-16T06:25:27.342Z,5.05
2022-11-16T06:30:34.168Z,5.08
2022-11-16T06:35:41.918Z,5.10
2022-11-16T06:40:52.891Z,5.10
2022-11-16T06:46:00.441Z,5.11
2022-11-16T06:51:07.347Z,5.17
2022-11-16T06:56:17.681Z,5.15
2022-11-16T07:01:30.162Z,5.20
2022-11-16T07:06:42.669Z,5.19
2022-11-16T07:11:50.459Z,5.15
2022-11-16T07:17:01.040Z,5.12
2022-11-16T07:22:08.424Z,5.17
2022-11-16T07:27:16.631Z,5.18
2022-11-16T07:32:27.399Z,5.09
2022-11-16T07:37:58.896Z,5.10
2022-11-16T07:43:06.468Z,5.07
2022-11-16T07:48:34.287Z,5.05
2022-11-16T07:53:57.079Z,5.02
2022-11-16T07:59:06.374Z,4.96
2022-11-16T08:04:17.821Z,4.86
2022-11-16T08:09:24.080Z,4.77
2022-11-16T08:14:33.327Z,4.70
2022-11-16T08:19:42.558Z,4.72
2022-11-16T08:24:52.370Z,4.74
2022-11-16T08:30:00.267Z,4.72
2022-11-16T08:35:07.412Z,4.74
2022-11-16T08:40:14.855Z,4.72
2022-11-16T08:45:23.517Z,4.73
2022-11-16T08:50:31.400Z,4.67
2022-11-16T08:55:39.755Z,4.74
2022-11-16T09:00:47.909Z,4.74
2022-11-16T09:05:54.564Z,4.83
2022-11-16T09:11:01.051Z,4.90
2022-11-16T09:16:09.974Z,4.97
2022-11-16T09:21:21.069Z,4.95
2022-11-16T09:26:27.972Z,5.01
2022-11-16T09:31:37.775Z,5.00
2022-11-16T09:36:43.889Z,5.09
2022-11-16T09:42:06.960Z,5.07
2022-11-16T09:47:22.061Z,5.06
2022-11-16T09:52:36.110Z,5.04
2022-11-16T09:57:42.672Z,5.14
2022-11-16T10:02:59.583Z,5.16
2022-11-16T10:08:15.383Z,5.20
2022-11-16T10:13:39.190Z,5.20
2022-11-16T10:18:57.061Z,5.26
2022-11-16T10:24:34.442Z,5.25
2022-11-16T10:29:58.121Z,5.24
2022-11-16T10:35:14.664Z,5.32
2022-11-16T10:40:25.731Z,5.37
2022-11-16T10:45:41.293Z,5.39
2022-11-16T10:50:51.785Z,5.45
2022-11-16T10:56:18.017Z,5.45
2022-11-16T11:01:33.631Z,5.48
2022-11-16T11:06:41.682Z,5.44
2022-11-16T11:12:19.166Z,5.44
2022-11-16T11:17:25.431Z,5.37
2022-11-16T11:22:34.910Z,5.31
2022-11-16T11:27:41.367Z,5.34
2022-11-16T11:32:48.153Z,5.28
2022-11-16T11:38:04.793Z,5.25
2022-11-16T11:43:25.553Z,5.19
2022-11-16T11:48:42.913Z,4.93
2022-11-16T11:53:57.109Z,4.73
2022-11-16T11:59:04.847Z,4.43
2022-11-16T12:04:51.912Z,4.21
2022-11-16T12:10:10.237Z,4.10
2022-11-16T12:15:46.991Z,3.88
2022-11-16T12:21:07.256Z,3.84
2022-11-16T12:26:25.296Z,3.81
2022-11-16T12:31:58.046Z,3.74
2022-11-16T12:37:12.494Z,3.66
2022-11-16T12:42:36.407Z,3.63
2022-11-16T12:48:13.660Z,3.59
2022-11-16T12:53:59.899Z,3.56
2022-11-16T12:59:32.666Z,3.46
2022-11-16T13:04:43.596Z,3.33
2022-11-16T13:09:55.878Z,3.19
2022-11-16T13:15:06.564Z,3.10
2022-11-16T13:20:34.883Z,2.96
2022-11-16T13:25:47.263Z,2.83
2022-11-16T13:31:06.648Z,2.82
2022-11-16T13:36:45.689Z,2.82
2022-11-16T13:42:06.650Z,2.72
2022-11-16T13:47:26.342Z,2.57
2022-11-16T13:53:36.363Z,2.57
2022-11-16T13:58:21.705Z,2.66
2022-11-16T14:03:38.994Z,2.73
2022-11-16T14:08:53.604Z,2.69
2022-11-16T14:14:02.430Z,2.67
2022-11-16T14:19:55.387Z,2.62
2022-11-16T14:25:11.191Z,2.67
2022-11-16T14:30:24.399Z,2.61
2022-11-16T14:35:37.031Z,2.62
2022-11-16T14:40:48.465Z,2.62
2022-11-16T14:45:58.452Z,2.53
2022-11-16T14:51:12.303Z,2.51
2022-11-16T14:56:21.036Z,2.51
2022-11-16T15:01:30.733Z,2.48
2022-11-16T15:06:45.594Z,2.52
2022-11-16T15:12:10.947Z,2.51
2022-11-16T15:17:20.985Z,2.45
2022-11-16T15:22:30.734Z,2.44
2022-11-16T15:27:40.724Z,2.49
2022-11-16T15:32:50.059Z,2.49
2022-11-16T15:38:15.366Z,2.51
2022-11-16T15:43:25.776Z,2.54
2022-11-16T15:48:33.690Z,2.53
2022-11-16T15:53:44.198Z,2.54
2022-11-16T15:58:51.169Z,2.49
2022-11-16T16:04:00.859Z,2.50
2022-11-16T16:09:21.642Z,2.52
2022-11-16T16:14:31.425Z,2.52
2022-11-16T16:19:43.141Z,2.60
2022-11-16T16:24:51.264Z,2.64
2022-11-16T16:30:00.667Z,2.62
2022-11-16T16:35:18.962Z,2.69
2022-11-16T16:40:27.905Z,2.68
2022-11-16T16:45:39.261Z,2.68
2022-11-16T16:50:45.878Z,2.72
2022-11-16T16:55:54.777Z,2.70
2022-11-16T17:01:05.310Z,2.76
2022-11-16T17:06:13.034Z,2.77
2022-11-16T17:11:21.354Z,2.77
2022-11-16T17:16:29.082Z,2.78
2022-11-16T17:21:37.740Z,2.77
2022-11-16T17:26:48.920Z,2.80
2022-11-16T17:31:57.693Z,2.86
2022-11-16T17:37:04.829Z,2.88
2022-11-16T17:42:13.057Z,2.86
2022-11-16T17:47:21.991Z,2.92
2022-11-16T17:52:29.939Z,2.91
2022-11-16T17:57:39.177Z,2.95
2022-11-16T18:02:47.265Z,2.89
2022-11-16T18:07:54.299Z,2.92
2022-11-16T18:13:02.669Z,2.90
2022-11-16T18:18:10.405Z,2.92
2022-11-16T18:23:17.339Z,2.87
2022-11-16T18:28:27.214Z,2.85
2022-11-16T18:33:35.365Z,2.92
2022-11-16T18:38:43.561Z,2.91
2022-11-16T18:43:55.201Z,2.91
2022-11-16T18:49:04.246Z,2.88
2022-11-16T18:54:12.081Z,2.88
2022-11-16T18:59:21.578Z,2.90
2022-11-16T19:04:29.462Z,2.90
2022-11-16T19:09:36.757Z,2.87
2022-11-16T19:14:46.531Z,2.78
2022-11-16T19:19:53.835Z,2.77
2022-11-16T19:25:05.834Z,2.74
2022-11-16T19:30:21.659Z,2.73
2022-11-16T19:35:29.169Z,2.74
2022-11-16T19:40:39.909Z,2.77
2022-11-16T19:45:49.351Z,2.77
2022-11-16T19:50:57.084Z,2.81
2022-11-16T19:56:05.077Z,2.82
2022-11-16T20:01:17.815Z,2.84
2022-11-16T20:06:30.948Z,2.82
2022-11-16T20:11:40.631Z,2.86
2022-11-16T20:16:52.061Z,2.88
2022-11-16T20:22:00.656Z,2.87
2022-11-16T20:27:09.294Z,2.91
2022-11-16T20:32:18.847Z,2.90
2022-11-16T20:37:26.783Z,2.91
2022-11-16T20:42:34.425Z,2.84
2022-11-16T20:47:42.935Z,2.88
2022-11-16T20:52:52.900Z,2.92
2022-11-16T20:58:00.195Z,2.98
2022-11-16T21:03:08.839Z,3.00
2022-11-16T21:08:16.485Z,2.98
2022-11-16T21:13:39.800Z,2.97
2022-11-16T21:18:50.650Z,2.93
2022-11-16T21:23:57.311Z,2.96
2022-11-16T21:29:04.187Z,2.96
2022-11-16T21:34:12.389Z,2.97
2022-11-16T21:39:19.185Z,2.95
2022-11-16T21:44:25.695Z,2.86
2022-11-16T21:49:33.379Z,2.92
2022-11-16T21:54:49.070Z,2.93
2022-11-16T21:59:55.908Z,2.95
2022-11-16T22:05:20.967Z,2.94
2022-11-16T22:10:27.237Z,2.94
2022-11-16T22:15:33.564Z,2.97
2022-11-16T22:20:41.586Z,2.90
2022-11-16T22:25:47.816Z,2.86
2022-11-16T22:31:02.914Z,2.88
2022-11-16T22:36:13.612Z,2.90
2022-11-16T22:41:20.440Z,2.91
2022-11-16T22:46:26.873Z,2.86
2022-11-16T22:51:35.436Z,2.78
2022-11-16T22:56:41.880Z,2.78
2022-11-16T23:01:48.033Z,2.79
2022-11-16T23:06:55.524Z,2.80
2022-11-16T23:12:18.833Z,2.83
2022-11-16T23:17:24.983Z,2.85
2022-11-16T23:22:49.626Z,2.81
2022-11-16T23:28:01.885Z,2.75
2022-11-16T23:33:08.825Z,2.72
2022-11-16T23:38:16.903Z,2.73
2022-11-16T23:43:40.814Z,2.70
2022-11-16T23:48:47.035Z,2.69
2022-11-16T23:53:56.175Z,2.68
2022-11-16T23:59:01.978Z,2.66
